createdAt,value
2023-04-25T00:00:34.919Z,5.75
2023-04-25T00:03:39.382Z,5.73
2023-04-25T00:06:43.117Z,5.76
2023-04-25T00:09:47.595Z,5.80
2023-04-25T00:12:51.153Z,5.77
2023-04-25T00:15:57.262Z,5.75
2023-04-25T00:19:00.975Z,5.78
2023-04-25T00:22:04.821Z,5.82
2023-04-25T00:25:09.499Z,5.82
2023-04-25T00:28:13.362Z,5.77
2023-04-25T00:31:18.306Z,5.79
2023-04-25T00:34:22.396Z,5.87
2023-04-25T00:37:26.402Z,5.81
2023-04-25T00:40:30.668Z,5.75
2023-04-25T00:43:35.970Z,5.76
2023-04-25T00:46:41.913Z,5.70
2023-04-25T00:49:45.538Z,5.74
2023-04-25T00:52:49.322Z,5.67
2023-04-25T00:55:54.495Z,5.66
2023-04-25T00:58:58.876Z,5.62
2023-04-25T01:02:03.874Z,5.55
2023-04-25T01:05:07.897Z,5.62
2023-04-25T01:08:11.903Z,5.55
2023-04-25T01:11:15.788Z,5.53
2023-04-25T01:14:19.474Z,5.47
2023-04-25T01:17:24.914Z,5.47
2023-04-25T01:20:29.392Z,5.37
2023-04-25T01:23:35.690Z,5.38
2023-04-25T01:26:41.126Z,5.41
2023-04-25T01:29:45.019Z,5.36
2023-04-25T01:32:50.463Z,5.40
2023-04-25T01:35:54.500Z,5.35
2023-04-25T01:39:00.004Z,5.30
2023-04-25T01:42:03.782Z,5.22
2023-04-25T01:45:09.240Z,5.14
2023-04-25T01:48:15.399Z,5.10
2023-04-25T01:51:19.708Z,5.14
2023-04-25T01:54:24.689Z,5.12
2023-04-25T01:57:28.298Z,5.10
2023-04-25T02:00:31.998Z,4.98
2023-04-25T02:03:37.465Z,4.88
2023-04-25T02:06:41.096Z,4.90
2023-04-25T02:09:46.061Z,4.84
2023-04-25T02:12:49.556Z,4.83
2023-04-25T02:15:53.178Z,4.91
2023-04-25T02:18:56.748Z,4.83
2023-04-25T02:22:00.571Z,4.86
2023-04-25T02:25:06.731Z,4.81
2023-04-25T02:28:10.255Z,4.72
2023-04-25T02:31:13.826Z,4.70
2023-04-25T02:34:17.343Z,4.66
2023-04-25T02:37:20.886Z,4.64
2023-04-25T02:40:25.824Z,4.61
2023-04-25T02:43:29.454Z,4.69
2023-04-25T02:49:42.667Z,4.63
2023-04-25T02:52:46.267Z,4.53
2023-04-25T02:55:51.074Z,4.46
2023-04-25T02:58:54.871Z,4.36
2023-04-25T03:01:58.538Z,4.20
2023-04-25T03:05:10.506Z,4.10
2023-04-25T03:08:14.056Z,4.05
2023-04-25T03:11:18.342Z,4.02
2023-04-25T03:14:21.964Z,4.06
2023-04-25T03:17:25.596Z,4.02
2023-04-25T03:20:30.634Z,4.00
2023-04-25T03:23:34.781Z,3.93
2023-04-25T03:26:38.438Z,3.94
2023-04-25T03:29:42.627Z,4.00
2023-04-25T03:32:46.280Z,4.04
2023-04-25T03:35:52.061Z,4.07
2023-04-25T03:38:55.849Z,4.14
2023-04-25T03:41:59.411Z,4.16
2023-04-25T03:45:03.008Z,4.16
2023-04-25T03:48:07.259Z,4.18
2023-04-25T03:51:12.368Z,4.12
2023-04-25T03:54:16.035Z,4.21
2023-04-25T03:57:19.569Z,4.20
2023-04-25T04:00:23.313Z,4.22
2023-04-25T04:03:27.080Z,4.13
2023-04-25T04:06:32.670Z,4.11
2023-04-25T04:09:36.227Z,4.14
2023-04-25T04:12:40.543Z,4.14
2023-04-25T04:15:44.342Z,4.13
2023-04-25T04:18:48.611Z,4.18
2023-04-25T04:21:53.657Z,4.15
2023-04-25T04:24:57.841Z,4.20
2023-04-25T04:28:02.008Z,4.20
2023-04-25T04:31:05.985Z,4.22
2023-04-25T04:34:10.604Z,4.28
2023-04-25T04:37:15.850Z,4.35
2023-04-25T04:40:20.279Z,4.34
2023-04-25T04:43:24.018Z,4.39
2023-04-25T04:46:29.131Z,4.31
2023-04-25T04:49:32.906Z,4.27
2023-04-25T04:52:38.428Z,4.33
2023-04-25T04:55:42.665Z,4.42
2023-04-25T04:58:46.272Z,4.52
2023-04-25T05:01:49.894Z,4.44
2023-04-25T05:04:53.937Z,4.53
2023-04-25T05:08:01.669Z,4.56
2023-04-25T05:11:05.701Z,4.55
2023-04-25T05:14:09.292Z,4.61
2023-04-25T05:17:13.178Z,4.59
2023-04-25T05:20:16.799Z,4.63
2023-04-25T05:23:21.756Z,4.68
2023-04-25T05:26:25.576Z,4.67
2023-04-25T05:29:29.072Z,4.70
2023-04-25T05:32:32.865Z,4.74
2023-04-25T05:35:36.685Z,4.85
2023-04-25T05:38:41.668Z,4.86
2023-04-25T05:41:45.373Z,4.87
2023-04-25T05:44:49.664Z,4.87
2023-04-25T05:47:53.478Z,4.89
2023-04-25T05:50:57.855Z,4.91
2023-04-25T05:54:02.948Z,4.93
2023-04-25T05:57:06.829Z,4.98
2023-04-25T06:00:12.084Z,5.03
2023-04-25T06:03:19.611Z,4.75
2023-04-25T06:06:24.858Z,4.93
2023-04-25T06:09:29.888Z,5.17
2023-04-25T06:12:33.468Z,5.17
2023-04-25T06:15:38.390Z,5.35
2023-04-25T06:18:42.003Z,5.60
2023-04-25T06:21:46.562Z,5.58
2023-04-25T06:24:51.577Z,6.47
2023-04-25T06:27:55.409Z,5.81
2023-04-25T06:30:59.119Z,5.90
2023-04-25T06:34:03.522Z,5.90
2023-04-25T06:37:07.254Z,5.91
2023-04-25T06:40:13.132Z,5.83
2023-04-25T06:43:16.752Z,5.65
2023-04-25T06:46:20.741Z,6.03
2023-04-25T06:49:24.501Z,5.70
2023-04-25T06:52:28.349Z,5.48
2023-04-25T06:55:33.428Z,5.42
2023-04-25T06:58:37.132Z,4.98
2023-04-25T07:01:41.329Z,4.90
2023-04-25T07:04:46.264Z,4.98
2023-04-25T07:07:49.875Z,5.06
2023-04-25T07:10:54.862Z,5.36
2023-04-25T07:13:58.536Z,5.21
2023-04-25T07:17:02.737Z,5.26
2023-04-25T07:20:08.914Z,5.49
2023-04-25T07:23:12.459Z,5.64
2023-04-25T07:26:17.597Z,5.80
2023-04-25T07:29:21.308Z,5.81
2023-04-25T07:32:25.022Z,5.97
2023-04-25T07:35:28.893Z,6.33
2023-04-25T07:38:32.437Z,6.80
2023-04-25T07:41:37.533Z,6.84
2023-04-25T07:44:41.388Z,6.77
2023-04-25T07:47:45.052Z,6.61
2023-04-25T07:50:48.769Z,6.98
2023-04-25T07:53:52.469Z,7.60
2023-04-25T07:56:57.486Z,7.46
2023-04-25T08:00:01.995Z,7.38
2023-04-25T08:03:10.533Z,6.91
2023-04-25T08:06:14.539Z,6.86
2023-04-25T08:09:18.509Z,6.57
2023-04-25T08:12:23.606Z,6.46
2023-04-25T08:15:27.508Z,6.44
2023-04-25T08:18:31.905Z,6.40
2023-04-25T08:21:35.676Z,6.33
2023-04-25T08:24:39.711Z,6.54
2023-04-25T08:27:45.394Z,6.65
2023-04-25T08:30:48.996Z,6.72
2023-04-25T08:33:53.065Z,6.77
2023-04-25T08:36:57.136Z,7.04
2023-04-25T08:40:00.879Z,7.30
2023-04-25T08:43:12.391Z,7.81
2023-04-25T08:46:20.595Z,7.69
2023-04-25T08:49:24.774Z,7.42
2023-04-25T08:52:37.522Z,7.37
2023-04-25T08:55:44.669Z,7.69
2023-04-25T08:58:51.773Z,7.12
2023-04-25T09:01:55.638Z,7.84
2023-04-25T09:05:00.131Z,8.11
2023-04-25T09:08:03.937Z,8.27
2023-04-25T09:11:07.506Z,8.99
2023-04-25T09:14:17.898Z,9.23
2023-04-25T09:17:21.522Z,9.46
2023-04-25T09:20:25.966Z,9.49
2023-04-25T09:23:29.593Z,8.83
2023-04-25T09:26:34.724Z,8.29
2023-04-25T09:29:41.861Z,7.56
2023-04-25T09:32:46.395Z,7.33
2023-04-25T09:35:53.976Z,5.28
2023-04-25T09:38:58.177Z,4.68
2023-04-25T09:42:02.536Z,4.23
2023-04-25T09:45:08.970Z,4.21
2023-04-25T09:48:12.601Z,4.70
2023-04-25T09:51:16.690Z,4.95
2023-04-25T09:54:20.364Z,5.04
2023-04-25T09:57:27.122Z,5.56
2023-04-25T10:00:34.298Z,5.73
2023-04-25T10:03:41.284Z,6.41
2023-04-25T10:06:48.312Z,7.27
2023-04-25T10:09:57.348Z,7.37
2023-04-25T10:13:02.430Z,7.15
2023-04-25T10:16:08.072Z,7.08
2023-04-25T10:19:12.556Z,7.16
2023-04-25T10:22:25.530Z,7.51
2023-04-25T10:25:29.540Z,8.05
2023-04-25T10:28:59.949Z,7.85
2023-04-25T10:32:05.643Z,8.05
2023-04-25T10:35:18.139Z,8.58
2023-04-25T10:38:21.914Z,8.54
2023-04-25T10:41:25.507Z,8.50
2023-04-25T10:44:30.505Z,8.24
2023-04-25T10:47:48.286Z,8.21
2023-04-25T10:50:51.901Z,8.03
2023-04-25T10:54:04.515Z,7.85
2023-04-25T10:57:08.145Z,8.17
2023-04-25T11:00:16.542Z,8.14
2023-04-25T11:03:26.848Z,8.18
2023-04-25T11:06:49.246Z,8.83
2023-04-25T11:09:54.253Z,9.05
2023-04-25T11:12:58.488Z,8.37
2023-04-25T11:16:12.138Z,7.87
2023-04-25T11:19:18.298Z,7.34
2023-04-25T11:22:25.084Z,7.58
2023-04-25T11:25:29.326Z,7.15
2023-04-25T11:28:32.941Z,7.13
2023-04-25T11:31:36.836Z,7.76
2023-04-25T11:34:44.930Z,7.60
2023-04-25T11:37:49.092Z,7.70
2023-04-25T11:40:53.769Z,7.50
2023-04-25T11:43:57.621Z,7.65
2023-04-25T11:47:01.206Z,7.61
2023-04-25T11:50:09.893Z,7.42
2023-04-25T11:53:14.091Z,7.67
2023-04-25T11:56:18.000Z,8.09
2023-04-25T11:59:27.407Z,7.85
2023-04-25T12:02:31.313Z,7.87
2023-04-25T12:05:38.881Z,8.47
2023-04-25T12:09:05.629Z,8.16
2023-04-25T12:12:12.804Z,7.21
2023-04-25T12:15:29.878Z,7.15
2023-04-25T12:18:33.665Z,6.96
2023-04-25T12:21:46.972Z,7.00
2023-04-25T12:25:00.750Z,7.11
2023-04-25T12:28:16.830Z,7.02
2023-04-25T12:31:20.756Z,7.13
2023-04-25T12:34:26.433Z,7.37
2023-04-25T12:37:32.122Z,7.77
2023-04-25T12:40:35.873Z,7.90
2023-04-25T12:43:39.604Z,8.08
2023-04-25T12:46:43.579Z,8.39
2023-04-25T12:49:47.216Z,8.17
2023-04-25T12:52:52.145Z,8.68
2023-04-25T12:59:05.141Z,8.74
2023-04-25T13:02:08.804Z,8.49
2023-04-25T13:05:12.469Z,7.83
2023-04-25T13:08:17.510Z,7.30
2023-04-25T13:11:21.758Z,7.15
2023-04-25T13:14:25.380Z,7.02
2023-04-25T13:17:29.114Z,6.69
2023-04-25T13:20:32.828Z,6.95
2023-04-25T13:23:37.973Z,7.11
2023-04-25T13:26:41.568Z,7.30
2023-04-25T13:29:45.154Z,7.53
2023-04-25T13:32:48.945Z,7.84
2023-04-25T13:35:54.978Z,8.02
2023-04-25T13:38:59.985Z,8.49
2023-04-25T13:42:04.158Z,8.45
2023-04-25T13:45:09.556Z,8.31
2023-04-25T13:48:13.247Z,8.39
2023-04-25T13:51:18.587Z,8.14
2023-04-25T13:54:24.161Z,7.96
2023-04-25T13:57:27.810Z,8.00
2023-04-25T14:00:32.468Z,7.89
2023-04-25T14:03:36.425Z,8.04
2023-04-25T14:06:40.215Z,7.64
2023-04-25T14:09:45.303Z,7.85
2023-04-25T14:12:49.079Z,8.02
2023-04-25T14:15:52.754Z,7.43
2023-04-25T14:18:56.593Z,7.46
2023-04-25T14:22:00.204Z,7.60
2023-04-25T14:25:06.441Z,8.27
2023-04-25T14:28:10.096Z,8.56
2023-04-25T14:31:13.985Z,8.40
2023-04-25T14:34:17.632Z,7.17
2023-04-25T14:37:21.727Z,6.03
2023-04-25T14:40:27.635Z,5.21
2023-04-25T14:43:31.341Z,4.62
2023-04-25T14:46:35.288Z,4.64
2023-04-25T14:49:39.127Z,4.91
2023-04-25T14:52:42.748Z,5.25
2023-04-25T14:55:47.989Z,5.43
2023-04-25T14:58:52.563Z,5.92
2023-04-25T15:01:58.331Z,6.23
2023-04-25T15:05:04.496Z,6.85
2023-04-25T15:08:08.569Z,6.89
2023-04-25T15:11:13.589Z,7.49
2023-04-25T15:14:17.211Z,7.09
2023-04-25T15:17:20.871Z,6.95
2023-04-25T15:20:25.117Z,6.71
2023-04-25T15:23:29.837Z,6.31
2023-04-25T15:26:35.059Z,5.55
2023-04-25T15:29:38.614Z,5.40
2023-04-25T15:32:42.443Z,5.56
2023-04-25T15:35:46.763Z,5.62
2023-04-25T15:38:50.866Z,5.83
2023-04-25T15:41:56.275Z,5.92
2023-04-25T15:44:59.894Z,6.19
2023-04-25T15:48:03.547Z,6.35
2023-04-25T15:51:08.302Z,6.45
2023-04-25T15:54:11.963Z,6.60
2023-04-25T15:57:17.088Z,6.58
2023-04-25T16:00:22.566Z,6.40
2023-04-25T16:03:26.549Z,6.46
2023-04-25T16:06:30.311Z,6.12
2023-04-25T16:09:34.538Z,5.76
2023-04-25T16:12:39.906Z,6.23
2023-04-25T16:15:43.775Z,6.04
2023-04-25T16:18:47.343Z,6.33
2023-04-25T16:21:51.836Z,6.22
2023-04-25T16:24:55.510Z,6.18
2023-04-25T16:28:00.638Z,6.16
2023-04-25T16:31:04.421Z,6.16
2023-04-25T16:34:08.825Z,6.10
2023-04-25T16:37:12.430Z,6.11
2023-04-25T16:40:16.073Z,6.14
2023-04-25T16:43:21.479Z,6.14
2023-04-25T16:46:25.269Z,6.55
2023-04-25T16:49:29.238Z,6.63
2023-04-25T16:52:33.125Z,6.66
2023-04-25T16:55:36.840Z,6.48
2023-04-25T16:58:41.963Z,6.21
2023-04-25T17:01:45.721Z,5.99
2023-04-25T17:04:49.395Z,6.11
2023-04-25T17:07:53.059Z,6.09
2023-04-25T17:10:57.011Z,6.30
2023-04-25T17:14:02.065Z,6.24
2023-04-25T17:17:05.983Z,5.97
2023-04-25T17:20:11.119Z,5.95
2023-04-25T17:23:14.921Z,5.91
2023-04-25T17:26:18.477Z,5.90
2023-04-25T17:29:23.972Z,5.76
2023-04-25T17:32:28.518Z,5.78
2023-04-25T17:35:34.068Z,5.76
2023-04-25T17:38:39.041Z,5.82
2023-04-25T17:41:42.730Z,5.75
2023-04-25T17:44:47.789Z,5.67
2023-04-25T17:47:51.421Z,5.64
2023-04-25T17:50:54.980Z,5.57
2023-04-25T17:53:58.778Z,5.46
2023-04-25T17:57:02.649Z,5.42
2023-04-25T18:00:11.842Z,5.40
2023-04-25T18:03:16.444Z,5.33
2023-04-25T18:06:20.393Z,5.20
2023-04-25T18:09:24.886Z,5.11
2023-04-25T18:12:28.539Z,5.10
2023-04-25T18:15:34.430Z,5.14
2023-04-25T18:18:38.173Z,5.10
2023-04-25T18:21:42.834Z,5.11
2023-04-25T18:24:46.440Z,5.06
2023-04-25T18:27:50.967Z,5.00
2023-04-25T18:30:56.828Z,4.87
2023-04-25T18:34:00.826Z,4.91
2023-04-25T18:37:04.473Z,4.77
2023-04-25T18:40:14.126Z,4.76
2023-04-25T18:43:18.042Z,4.79
2023-04-25T18:46:23.734Z,4.74
2023-04-25T18:49:27.732Z,4.71
2023-04-25T18:52:31.553Z,4.60
2023-04-25T18:55:35.181Z,4.55
2023-04-25T18:58:38.986Z,4.43
2023-04-25T19:01:44.085Z,4.38
2023-04-25T19:04:47.969Z,4.29
2023-04-25T19:07:51.989Z,4.22
2023-04-25T19:10:56.771Z,4.22
2023-04-25T19:14:01.223Z,4.19
2023-04-25T19:17:06.268Z,4.15
2023-04-25T19:20:11.388Z,4.12
2023-04-25T19:23:14.962Z,4.07
2023-04-25T19:26:18.962Z,3.97
2023-04-25T19:29:22.658Z,3.92
2023-04-25T19:32:28.604Z,3.87
2023-04-25T19:35:33.535Z,3.74
2023-04-25T19:38:37.509Z,3.68
2023-04-25T19:41:41.291Z,3.75
2023-04-25T19:44:44.917Z,3.71
2023-04-25T19:47:49.868Z,3.70
2023-04-25T19:50:53.605Z,3.66
2023-04-25T19:53:57.354Z,3.62
2023-04-25T19:57:01.816Z,3.61
2023-04-25T20:00:10.832Z,3.54
2023-04-25T20:03:16.573Z,3.52
2023-04-25T20:06:20.384Z,3.51
2023-04-25T20:09:24.762Z,3.46
2023-04-25T20:12:28.710Z,3.46
2023-04-25T20:15:32.928Z,3.39
2023-04-25T20:18:37.921Z,3.41
2023-04-25T20:21:41.669Z,3.46
2023-04-25T20:24:45.354Z,3.61
2023-04-25T20:27:49.208Z,3.69
2023-04-25T20:30:52.827Z,3.77
2023-04-25T20:33:59.189Z,3.88
2023-04-25T20:37:02.937Z,3.93
2023-04-25T20:40:09.872Z,3.95
2023-04-25T20:43:14.347Z,3.98
2023-04-25T20:46:18.202Z,3.94
2023-04-25T20:49:23.360Z,3.91
2023-04-25T20:52:27.768Z,3.91
2023-04-25T20:55:31.575Z,3.98
2023-04-25T20:58:35.288Z,3.97
2023-04-25T21:01:39.125Z,4.01
2023-04-25T21:04:44.727Z,3.94
2023-04-25T21:07:48.377Z,3.91
2023-04-25T21:10:53.373Z,3.87
2023-04-25T21:13:56.995Z,3.84
2023-04-25T21:17:00.543Z,3.82
2023-04-25T21:20:10.296Z,3.79
2023-04-25T21:23:13.989Z,3.69
2023-04-25T21:26:17.556Z,3.69
2023-04-25T21:29:21.221Z,3.68
2023-04-25T21:32:25.175Z,3.60
2023-04-25T21:35:30.237Z,3.57
2023-04-25T21:38:34.062Z,3.49
2023-04-25T21:41:38.610Z,3.33
2023-04-25T21:44:42.181Z,3.25
2023-04-25T21:47:47.236Z,3.19
2023-04-25T21:50:52.269Z,3.13
2023-04-25T21:53:56.005Z,3.06
2023-04-25T21:56:59.527Z,3.06
2023-04-25T22:00:04.453Z,3.09
2023-04-25T22:03:08.142Z,3.11
2023-04-25T22:06:13.249Z,3.09
2023-04-25T22:09:17.767Z,3.07
2023-04-25T22:12:21.519Z,3.06
2023-04-25T22:15:25.231Z,3.09
2023-04-25T22:18:29.140Z,3.05
2023-04-25T22:21:34.065Z,3.00
2023-04-25T22:24:37.696Z,3.00
2023-04-25T22:27:43.642Z,3.01
2023-04-25T22:30:47.223Z,2.98
2023-04-25T22:33:51.445Z,3.00
2023-04-25T22:36:56.480Z,2.97
2023-04-25T22:40:00.219Z,2.94
2023-04-25T22:43:03.918Z,2.91
2023-04-25T22:46:08.240Z,2.96
2023-04-25T22:49:12.115Z,2.90
2023-04-25T22:52:17.222Z,2.94
2023-04-25T22:55:22.270Z,2.89
2023-04-25T22:58:26.261Z,2.82
2023-04-25T23:01:30.117Z,2.74
2023-04-25T23:04:34.550Z,2.70
2023-04-25T23:07:40.573Z,2.70
2023-04-25T23:10:44.221Z,2.68
2023-04-25T23:13:47.816Z,2.67
2023-04-25T23:16:51.404Z,2.59
2023-04-25T23:19:54.972Z,2.58
2023-04-25T23:23:00.359Z,2.50
2023-04-25T23:26:09.393Z,2.44
2023-04-25T23:29:12.933Z,2.44
2023-04-25T23:32:16.582Z,2.48
2023-04-25T23:35:20.465Z,2.44
2023-04-25T23:38:25.569Z,2.47
2023-04-25T23:41:29.108Z,2.49
2023-04-25T23:44:32.669Z,2.51
2023-04-25T23:47:37.550Z,2.56
2023-04-25T23:50:42.071Z,2.66
2023-04-25T23:53:47.202Z,2.71
2023-04-25T23:56:50.758Z,2.77
2023-04-25T23:59:54.609Z,2.86
